Time;durP1;ratioP1;P1;durP2;ratioP2;P2;SDS_P1;SDS_P2;PMS_P1;PMS_P2;Temp;Humidity;BMP_temperature;BMP_pressure;BME280_temperature;BME280_humidity;BME280_pressure;Samples;Min_cycle;Max_cycle;Signal;HPM_P1;HPM_P2
2021/11/24 00:01:37;;;;;;;15.20;4.85;;;;;;;7.39;71.50;101420.00;4969653;28;20050;-48
2021/11/24 00:04:04;;;;;;;12.70;5.35;;;;;;;7.39;72.03;101418.31;4963602;28;20057;-51
2021/11/24 00:06:31;;;;;;;13.05;5.15;;;;;;;7.38;71.13;101419.13;4964839;28;20054;-45
2021/11/24 00:08:57;;;;;;;15.35;5.13;;;;;;;7.38;71.89;101413.97;4968234;28;20047;-46
2021/11/24 00:11:24;;;;;;;13.85;4.85;;;;;;;7.40;71.12;101407.16;4960965;28;20494;-46
2021/11/24 00:13:50;;;;;;;13.63;5.57;;;;;;;7.41;71.18;101398.63;4962876;28;20051;-50
2021/11/24 00:16:17;;;;;;;15.50;4.78;;;;;;;7.42;72.22;101400.38;4963073;28;20486;-52
2021/11/24 00:18:44;;;;;;;14.80;5.63;;;;;;;7.42;71.63;101400.38;4962184;28;20050;-46
2021/11/24 00:21:11;;;;;;;11.00;4.35;;;;;;;7.41;72.07;101398.63;4962253;28;20050;-49
2021/11/24 00:23:37;;;;;;;14.57;5.72;;;;;;;7.40;72.52;101391.69;4960331;28;20494;-47
2021/11/24 00:26:04;;;;;;;13.52;5.47;;;;;;;7.40;71.00;101381.38;4961986;28;20057;-46
2021/11/24 00:28:31;;;;;;;14.90;5.53;;;;;;;7.40;72.73;101389.13;4962927;28;20244;-50
2021/11/24 00:30:58;;;;;;;15.93;5.85;;;;;;;7.38;71.82;101383.06;4963899;28;20446;-48
2021/11/24 00:33:26;;;;;;;14.98;6.13;;;;;;;7.37;72.54;101381.31;4959241;28;20058;-48
2021/11/24 00:35:53;;;;;;;16.50;5.28;;;;;;;7.38;72.28;101388.22;4967439;28;20076;-49
2021/11/24 00:38:21;;;;;;;14.32;5.15;;;;;;;7.36;73.29;101379.53;4959472;28;20051;-48
2021/11/24 00:40:47;;;;;;;16.23;5.07;;;;;;;7.35;71.91;101382.06;4961238;28;20726;-49
2021/11/24 00:43:14;;;;;;;14.60;4.95;;;;;;;7.34;72.40;101373.47;4961911;28;20050;-50
2021/11/24 00:45:41;;;;;;;12.13;4.78;;;;;;;7.33;73.16;101364.00;4960602;28;20051;-50
2021/11/24 00:48:08;;;;;;;13.40;4.68;;;;;;;7.32;72.22;101367.38;4962229;28;20054;-48
2021/11/24 00:50:34;;;;;;;14.57;5.15;;;;;;;7.33;71.69;101361.41;4961888;28;20061;-46
2021/11/24 00:53:01;;;;;;;17.13;5.50;;;;;;;7.33;72.63;101357.13;4962980;28;20126;-49
2021/11/24 00:55:28;;;;;;;14.52;4.78;;;;;;;7.35;73.00;101356.28;4961457;28;20039;-46
2021/11/24 00:57:55;;;;;;;15.05;5.18;;;;;;;7.33;72.97;101354.53;4959858;28;20109;-48
2021/11/24 01:00:22;;;;;;;12.02;4.63;;;;;;;7.33;73.11;101361.41;4962221;28;20063;-49
2021/11/24 01:02:49;;;;;;;12.38;4.32;;;;;;;7.31;72.40;101361.38;4965077;28;20525;-52
2021/11/24 01:05:17;;;;;;;14.52;5.30;;;;;;;7.31;72.27;101361.38;4963274;28;20047;-46
2021/11/24 01:07:44;;;;;;;12.27;5.10;;;;;;;7.32;72.78;101362.22;4977449;28;20046;-46
2021/11/24 01:10:11;;;;;;;11.50;4.35;;;;;;;7.33;73.18;101358.84;4962372;28;20050;-50
2021/11/24 01:12:39;;;;;;;12.52;4.70;;;;;;;7.31;72.96;101350.16;4962304;28;20122;-50
2021/11/24 01:15:06;;;;;;;11.07;4.25;;;;;;;7.30;72.53;101356.16;4957870;28;20055;-51
2021/11/24 01:17:33;;;;;;;11.82;4.53;;;;;;;7.29;72.08;101346.66;4957158;28;20084;-49
2021/11/24 01:20:00;;;;;;;12.38;4.45;;;;;;;7.27;71.50;101343.16;4966696;28;20054;-48
2021/11/24 01:22:26;;;;;;;11.27;4.60;;;;;;;7.27;71.80;101348.31;4962257;28;20058;-50
2021/11/24 01:24:53;;;;;;;11.00;4.38;;;;;;;7.27;71.65;101343.16;4965686;28;20045;-48
2021/11/24 01:27:23;;;;;;;11.70;4.05;;;;;;;7.28;71.43;101339.75;4963396;28;20142;-46
2021/11/24 01:29:50;;;;;;;11.48;4.60;;;;;;;7.28;71.58;101334.59;4966520;28;20066;-46
2021/11/24 01:32:17;;;;;;;11.00;4.57;;;;;;;7.27;72.61;101338.03;4960516;28;20043;-48
2021/11/24 01:34:43;;;;;;;10.55;4.00;;;;;;;7.27;72.64;101333.75;4965464;28;20078;-51
2021/11/24 01:37:10;;;;;;;11.13;3.80;;;;;;;7.27;72.29;101335.44;4965445;28;20063;-45
2021/11/24 01:39:38;;;;;;;13.60;4.68;;;;;;;7.25;73.01;101334.50;4964019;28;20055;-52
2021/11/24 01:42:05;;;;;;;9.93;4.10;;;;;;;7.24;72.93;101327.59;4968643;28;20042;-47
2021/11/24 01:44:34;;;;;;;8.85;4.07;;;;;;;7.25;72.32;101329.34;4964947;28;20447;-47
2021/11/24 01:47:03;;;;;;;12.35;3.83;;;;;;;7.24;73.20;101325.03;4967118;28;20054;-50
2021/11/24 01:49:30;;;;;;;9.60;3.70;;;;;;;7.23;71.34;101315.56;4962296;28;20597;-50
2021/11/24 01:51:58;;;;;;;10.13;3.88;;;;;;;7.21;71.73;101323.25;4962557;28;20477;-47
2021/11/24 01:54:27;;;;;;;11.85;4.68;;;;;;;7.22;71.53;101309.53;4960722;28;20047;-46
2021/11/24 01:56:54;;;;;;;9.32;3.92;;;;;;;7.23;71.16;101310.41;4963818;28;20043;-49
2021/11/24 01:59:21;;;;;;;10.05;4.15;;;;;;;7.20;72.30;101306.03;4962121;28;20059;-49
2021/11/24 02:01:49;;;;;;;11.73;4.25;;;;;;;7.19;72.55;101305.16;4977021;28;20070;-47
2021/11/24 02:04:17;;;;;;;10.73;3.67;;;;;;;7.19;71.65;101305.16;4979858;28;20051;-47
2021/11/24 02:06:44;;;;;;;8.50;3.63;;;;;;;7.22;72.92;101303.50;4967203;28;20062;-50
2021/11/24 02:09:12;;;;;;;8.20;3.85;;;;;;;7.18;72.30;101303.41;4965752;28;20059;-47
2021/11/24 02:11:43;;;;;;;9.77;3.90;;;;;;;7.19;71.93;101294.84;4965800;28;20612;-46
2021/11/24 02:14:11;;;;;;;10.20;4.05;;;;;;;7.20;72.81;101291.44;4965065;28;20058;-49
2021/11/24 02:16:41;;;;;;;9.35;4.28;;;;;;;7.19;72.08;101289.69;4966202;28;21057;-49
2021/11/24 02:19:08;;;;;;;11.02;4.80;;;;;;;7.18;72.37;101282.78;4965469;28;20051;-49
2021/11/24 02:21:35;;;;;;;9.50;4.28;;;;;;;7.14;71.73;101278.38;4967039;28;20442;-53
2021/11/24 02:24:02;;;;;;;10.10;4.47;;;;;;;7.16;71.50;101274.13;4967618;28;20077;-47
2021/11/24 02:26:29;;;;;;;11.63;4.63;;;;;;;7.15;73.01;101272.38;4964397;28;20097;-49
2021/11/24 02:28:55;;;;;;;12.73;5.38;;;;;;;7.17;72.56;101273.28;4964742;28;20101;-44
2021/11/24 02:31:26;;;;;;;10.27;4.47;;;;;;;7.16;72.42;101263.81;4967310;28;20047;-49
2021/11/24 02:33:56;;;;;;;9.73;3.97;;;;;;;7.17;71.85;101270.72;4963011;28;20145;-45
2021/11/24 02:36:25;;;;;;;10.25;4.57;;;;;;;7.17;72.55;101255.25;4962047;28;20051;-48
2021/11/24 02:38:52;;;;;;;9.95;4.65;;;;;;;7.15;72.83;101251.78;4981907;28;20050;-45
2021/11/24 02:41:18;;;;;;;13.05;4.85;;;;;;;7.17;72.28;101239.78;4964425;28;20059;-48
2021/11/24 02:43:45;;;;;;;9.95;4.38;;;;;;;7.15;71.84;101241.47;4964909;28;20050;-49
2021/11/24 02:46:12;;;;;;;9.85;4.10;;;;;;;7.15;72.71;101241.47;4966555;28;20082;-50
2021/11/24 02:48:39;;;;;;;9.85;4.47;;;;;;;7.16;72.46;101232.91;4962560;28;20133;-50
2021/11/24 02:51:06;;;;;;;9.02;3.80;;;;;;;7.17;72.15;101229.47;4961974;28;20426;-49
2021/11/24 02:53:36;;;;;;;8.27;4.18;;;;;;;7.17;71.51;101226.91;4966465;28;20051;-45
2021/11/24 02:56:04;;;;;;;11.10;4.57;;;;;;;7.17;72.86;101219.19;4979101;28;20039;-49
2021/11/24 02:58:31;;;;;;;9.82;3.97;;;;;;;7.18;71.75;101226.09;4962910;28;20522;-53
2021/11/24 03:01:01;;;;;;;10.43;4.53;;;;;;;7.16;72.27;101214.84;4965257;28;20054;-48
2021/11/24 03:03:30;;;;;;;9.52;3.70;;;;;;;7.17;72.11;101208.88;4963610;28;20149;-50
2021/11/24 03:05:57;;;;;;;8.65;4.15;;;;;;;7.18;71.29;101215.78;4965703;28;20121;-45
2021/11/24 03:08:24;;;;;;;9.07;4.00;;;;;;;7.19;71.82;101211.50;4965067;28;20475;-50
2021/11/24 03:10:50;;;;;;;10.40;4.45;;;;;;;7.20;72.30;101206.38;4960815;28;20836;-50
2021/11/24 03:13:17;;;;;;;9.38;3.95;;;;;;;7.20;71.21;101203.81;4967394;28;20088;-47
2021/11/24 03:15:44;;;;;;;9.52;3.45;;;;;;;7.20;71.04;101198.66;4963849;28;20112;-47
2021/11/24 03:18:10;;;;;;;11.63;3.90;;;;;;;7.24;71.78;101203.91;4963360;28;20062;-49
2021/11/24 03:20:37;;;;;;;11.00;4.72;;;;;;;7.24;71.75;101198.75;4963178;28;20106;-49
2021/11/24 03:23:04;;;;;;;8.27;3.70;;;;;;;7.25;71.77;101192.75;4964377;28;20545;-48
2021/11/24 03:25:31;;;;;;;7.60;3.83;;;;;;;7.23;71.49;101187.56;4962555;28;20054;-52
2021/11/24 03:27:57;;;;;;;10.05;3.90;;;;;;;7.25;72.30;101177.31;4964317;28;20097;-46
2021/11/24 03:30:27;;;;;;;7.85;4.15;;;;;;;7.26;72.11;101171.34;4967487;28;20102;-49
2021/11/24 03:32:54;;;;;;;9.07;3.75;;;;;;;7.25;72.59;101164.41;4961054;28;20102;-45
2021/11/24 03:35:23;;;;;;;12.07;4.72;;;;;;;7.26;72.02;101158.47;4964892;28;20051;-48
2021/11/24 03:37:52;;;;;;;12.55;4.18;;;;;;;7.26;72.59;101158.47;4963620;28;20058;-49
2021/11/24 03:40:22;;;;;;;11.57;4.30;;;;;;;7.27;70.94;101162.78;4974504;28;20105;-47
2021/11/24 03:42:49;;;;;;;8.35;4.13;;;;;;;7.26;72.56;101151.56;4967219;28;20097;-48
2021/11/24 03:45:20;;;;;;;11.05;4.40;;;;;;;7.26;72.60;101145.56;4966723;28;20059;-51
2021/11/24 03:47:47;;;;;;;8.45;3.47;;;;;;;7.26;72.11;101140.41;4964543;28;20051;-49
2021/11/24 03:50:15;;;;;;;9.75;3.90;;;;;;;7.26;71.92;101140.41;4963160;28;20101;-50
2021/11/24 03:52:42;;;;;;;7.88;3.97;;;;;;;7.27;72.00;101139.59;4980526;28;20050;-45
2021/11/24 03:55:11;;;;;;;8.05;3.83;;;;;;;7.27;71.17;101143.03;4963434;28;20082;-49
2021/11/24 03:57:38;;;;;;;8.93;4.00;;;;;;;7.27;71.83;101134.44;4966725;28;20138;-46
2021/11/24 04:00:09;;;;;;;10.48;4.00;;;;;;;7.25;70.84;101128.34;4966777;28;20054;-47
2021/11/24 04:02:37;;;;;;;14.93;4.53;;;;;;;7.23;71.35;101127.44;4964609;28;20047;-45
2021/11/24 04:05:07;;;;;;;9.65;4.28;;;;;;;7.25;71.14;101136.06;4965352;28;20126;-51
2021/11/24 04:07:34;;;;;;;10.23;4.38;;;;;;;7.24;71.71;101132.66;4963013;28;20051;-49
2021/11/24 04:10:01;;;;;;;11.43;4.60;;;;;;;7.25;70.98;101128.34;4965550;28;20050;-46
2021/11/24 04:12:28;;;;;;;9.50;3.70;;;;;;;7.24;71.88;101116.28;4961439;28;20546;-48
2021/11/24 04:14:54;;;;;;;9.25;4.10;;;;;;;7.23;72.42;101114.56;4966524;28;20051;-49
2021/11/24 04:17:21;;;;;;;8.70;4.10;;;;;;;7.22;72.08;101115.41;4963240;28;20085;-50
2021/11/24 04:19:49;;;;;;;9.95;4.30;;;;;;;7.22;71.50;101113.66;4964085;28;20113;-46
2021/11/24 04:22:16;;;;;;;9.02;3.88;;;;;;;7.24;72.34;101116.28;4969622;28;20565;-52
2021/11/24 04:24:43;;;;;;;10.45;4.70;;;;;;;7.24;70.94;101100.84;4968431;28;20125;-45
2021/11/24 04:27:10;;;;;;;9.95;4.15;;;;;;;7.24;71.13;101094.00;4982016;28;20105;-51
2021/11/24 04:29:37;;;;;;;9.20;3.88;;;;;;;7.23;71.08;101094.78;4967307;28;20058;-48
2021/11/24 04:32:03;;;;;;;8.88;3.83;;;;;;;7.22;71.58;101098.22;4969022;28;20102;-46
2021/11/24 04:34:31;;;;;;;11.02;4.20;;;;;;;7.22;71.69;101097.34;4967075;28;20053;-46
2021/11/24 04:36:57;;;;;;;12.25;5.00;;;;;;;7.18;72.47;101092.13;4968870;28;20388;-49
2021/11/24 04:39:24;;;;;;;8.65;4.15;;;;;;;7.18;71.96;101091.22;4965380;28;20053;-49
2021/11/24 04:41:50;;;;;;;11.27;4.88;;;;;;;7.18;71.11;101081.81;4962823;28;20109;-47
2021/11/24 04:44:17;;;;;;;12.45;5.22;;;;;;;7.17;71.73;101085.19;4967209;28;20057;-45
2021/11/24 04:46:44;;;;;;;13.80;5.13;;;;;;;7.18;71.04;101084.38;4963183;28;20102;-48
2021/11/24 04:49:10;;;;;;;13.13;5.00;;;;;;;7.16;71.92;101072.28;4967140;28;20055;-51
2021/11/24 04:51:37;;;;;;;12.07;4.70;;;;;;;7.17;71.50;101080.03;4964283;28;20058;-48
2021/11/24 04:54:04;;;;;;;13.45;5.18;;;;;;;7.15;72.28;101071.41;4967045;28;20634;-51
2021/11/24 04:56:32;;;;;;;11.88;4.85;;;;;;;7.16;72.24;101062.84;4968440;28;20050;-47
2021/11/24 04:59:00;;;;;;;11.65;4.93;;;;;;;7.16;71.76;101067.13;4963834;28;20050;-47
2021/11/24 05:01:27;;;;;;;12.95;4.95;;;;;;;7.14;72.38;101069.66;4968590;28;20043;-49
2021/11/24 05:03:54;;;;;;;13.32;5.88;;;;;;;7.14;71.31;101058.47;4968529;28;20043;-51
2021/11/24 05:06:22;;;;;;;11.52;4.70;;;;;;;7.14;72.27;101055.91;4968509;28;20057;-51
2021/11/24 05:08:49;;;;;;;14.27;4.93;;;;;;;7.11;72.02;101054.13;4969009;28;20370;-45
2021/11/24 05:11:18;;;;;;;14.82;5.32;;;;;;;7.11;72.57;101048.97;4967706;28;20062;-50
2021/11/24 05:13:50;;;;;;;15.07;6.07;;;;;;;7.12;72.46;101050.69;4965588;28;20059;-51
2021/11/24 05:16:18;;;;;;;17.27;5.78;;;;;;;7.11;71.64;101043.81;4965671;28;20051;-47
2021/11/24 05:18:48;;;;;;;13.35;5.00;;;;;;;7.11;71.84;101043.81;4969479;28;20058;-48
2021/11/24 05:24:04;;;;;;;13.82;5.38;;;;;;;7.12;71.28;101035.25;4966205;28;20105;-44
2021/11/24 05:26:31;;;;;;;14.55;5.93;;;;;;;7.11;72.00;101033.50;4962392;28;20055;-48
2021/11/24 05:28:58;;;;;;;13.55;5.63;;;;;;;7.12;72.35;101032.66;4966996;28;20047;-49
2021/11/24 05:31:25;;;;;;;14.73;5.70;;;;;;;7.11;71.34;101033.50;4968124;28;20055;-47
2021/11/24 05:33:52;;;;;;;13.98;5.57;;;;;;;7.11;71.83;101028.34;4962341;28;20053;-49
2021/11/24 05:36:19;;;;;;;18.55;5.70;;;;;;;7.12;72.01;101030.09;4969334;28;20467;-49
2021/11/24 05:38:46;;;;;;;16.27;5.63;;;;;;;7.12;72.28;101024.94;4967832;28;20051;-46
2021/11/24 05:41:14;;;;;;;16.58;6.40;;;;;;;7.14;72.61;101023.28;4968926;28;20590;-47
2021/11/24 05:43:41;;;;;;;13.95;5.68;;;;;;;7.14;70.98;101018.13;4979784;28;20407;-47
2021/11/24 05:46:17;;;;;;;17.80;5.97;;;;;;;7.14;71.71;101013.00;4967591;28;20137;-50
2021/11/24 05:48:46;;;;;;;14.88;5.80;;;;;;;7.11;71.89;101007.75;4964142;28;20050;-49
2021/11/24 05:51:13;;;;;;;13.13;5.00;;;;;;;7.12;71.33;101008.63;4961640;28;20047;-50
2021/11/24 05:53:40;;;;;;;14.48;6.32;;;;;;;7.12;71.87;101003.47;4967767;28;20097;-47
2021/11/24 05:56:07;;;;;;;16.13;5.72;;;;;;;7.11;72.01;101002.59;4963641;28;20051;-49
2021/11/24 05:58:34;;;;;;;15.68;5.82;;;;;;;7.13;71.03;101006.06;4960409;28;20050;-48
2021/11/24 06:01:01;;;;;;;13.90;5.82;;;;;;;7.12;71.21;101001.75;4964376;28;20055;-47
2021/11/24 06:03:28;;;;;;;15.45;6.15;;;;;;;7.13;72.83;101000.91;4961815;28;20054;-47
2021/11/24 06:05:55;;;;;;;15.95;6.18;;;;;;;7.12;70.92;101001.75;4964985;28;20101;-51
2021/11/24 06:08:21;;;;;;;17.83;6.43;;;;;;;7.09;70.90;100996.50;4965860;28;20102;-47
2021/11/24 06:10:48;;;;;;;19.73;7.45;;;;;;;7.10;71.16;100995.69;4963711;28;20055;-47
2021/11/24 06:13:15;;;;;;;19.52;7.82;;;;;;;7.10;71.94;100995.69;4962231;28;20057;-50
2021/11/24 06:15:42;;;;;;;17.92;7.20;;;;;;;7.10;72.03;101000.84;4960259;28;20058;-49
2021/11/24 06:18:09;;;;;;;19.85;6.95;;;;;;;7.07;71.75;100998.19;4966763;28;20541;-51
2021/11/24 06:20:38;;;;;;;20.65;7.40;;;;;;;7.09;72.39;100988.78;4964654;28;20058;-45
2021/11/24 06:23:07;;;;;;;23.50;10.30;;;;;;;7.08;71.86;100987.03;4964945;28;20065;-48
2021/11/24 06:25:34;;;;;;;27.17;11.57;;;;;;;7.09;72.34;100993.94;4966301;28;20113;-47
2021/11/24 06:28:00;;;;;;;25.33;9.98;;;;;;;7.08;71.78;100981.88;4959115;28;20059;-47
2021/11/24 06:30:28;;;;;;;21.05;8.73;;;;;;;7.06;72.21;100978.41;4967179;28;20514;-47
2021/11/24 06:32:55;;;;;;;23.35;9.23;;;;;;;7.06;72.88;100979.28;4965426;28;20043;-45
2021/11/24 06:35:22;;;;;;;24.20;8.73;;;;;;;7.05;73.04;100976.66;4967174;28;20078;-47
2021/11/24 06:37:48;;;;;;;24.98;9.30;;;;;;;7.06;71.53;100983.56;4967360;28;20049;-46
2021/11/24 06:40:15;;;;;;;25.98;9.07;;;;;;;7.07;72.71;100975.84;4963524;28;20553;-47
2021/11/24 06:42:44;;;;;;;21.90;7.75;;;;;;;7.08;72.22;100979.31;4963204;28;20070;-46
2021/11/24 06:45:12;;;;;;;23.40;8.68;;;;;;;7.07;71.51;100975.84;4962505;28;20066;-45
2021/11/24 06:47:40;;;;;;;24.23;9.55;;;;;;;7.05;71.63;100971.50;4963120;28;20125;-48
2021/11/24 06:50:08;;;;;;;26.70;9.90;;;;;;;7.05;71.90;100966.34;4966021;28;20055;-48
2021/11/24 06:52:35;;;;;;;25.98;9.93;;;;;;;7.06;72.83;100968.13;4965041;28;20050;-52
2021/11/24 06:55:04;;;;;;;26.92;9.50;;;;;;;7.06;72.03;100965.53;4963006;28;20127;-49
2021/11/24 06:57:30;;;;;;;25.77;9.35;;;;;;;7.06;72.12;100965.53;4977336;28;20121;-48
2021/11/24 06:59:57;;;;;;;25.08;8.20;;;;;;;7.07;71.69;100964.69;4960835;28;20078;-50
2021/11/24 07:02:24;;;;;;;24.13;9.00;;;;;;;7.06;71.68;100963.81;4958864;28;20066;-45
2021/11/24 07:04:51;;;;;;;20.77;6.97;;;;;;;6.99;73.90;100950.75;4961964;28;20043;-50
2021/11/24 07:07:17;;;;;;;24.92;8.20;;;;;;;7.01;72.52;100954.22;4959875;28;20568;-46
2021/11/24 07:09:44;;;;;;;22.02;7.35;;;;;;;7.01;72.66;100946.50;4966424;28;20101;-45
2021/11/24 07:12:11;;;;;;;20.13;7.43;;;;;;;6.99;72.29;100950.75;4963037;28;20059;-49
2021/11/24 07:14:38;;;;;;;21.52;8.27;;;;;;;7.00;73.22;100949.91;4961017;28;20057;-51
2021/11/24 07:17:05;;;;;;;22.85;7.68;;;;;;;7.01;71.87;100946.50;4959125;28;20442;-46
2021/11/24 07:19:32;;;;;;;23.15;8.85;;;;;;;7.02;72.45;100951.69;4962369;28;20054;-45
2021/11/24 07:21:59;;;;;;;19.27;7.25;;;;;;;7.04;72.59;100949.16;4959649;28;20296;-47
2021/11/24 07:24:25;;;;;;;22.92;7.70;;;;;;;7.00;73.46;100943.06;4961345;28;20051;-44
2021/11/24 07:26:53;;;;;;;24.58;8.48;;;;;;;7.01;73.60;100946.50;4962695;28;20050;-45
2021/11/24 07:29:20;;;;;;;23.42;8.18;;;;;;;7.02;72.97;100937.94;4960774;28;20439;-47
2021/11/24 07:31:47;;;;;;;17.77;6.22;;;;;;;7.03;72.33;100937.13;4961377;28;20399;-47
2021/11/24 07:34:14;;;;;;;17.30;6.07;;;;;;;7.04;72.33;100938.84;4972662;28;20059;-48
2021/11/24 07:36:41;;;;;;;16.05;5.45;;;;;;;7.01;73.16;100934.50;4957447;28;20039;-47
2021/11/24 07:39:08;;;;;;;11.77;4.72;;;;;;;7.00;72.22;100926.72;4963060;28;20545;-51
2021/11/24 07:41:34;;;;;;;16.20;6.55;;;;;;;6.99;72.10;100930.16;4962483;28;20108;-45
2021/11/24 07:44:01;;;;;;;13.90;5.18;;;;;;;7.01;73.52;100933.63;4962087;28;20047;-48
2021/11/24 07:46:28;;;;;;;15.13;4.68;;;;;;;6.97;72.89;100927.53;4959547;28;20094;-44
2021/11/24 07:48:57;;;;;;;9.65;4.28;;;;;;;6.99;73.51;100925.00;4961264;28;20730;-47
2021/11/24 07:51:25;;;;;;;11.95;4.85;;;;;;;6.98;73.96;100928.38;4959334;28;20058;-46
2021/11/24 07:53:52;;;;;;;11.95;4.55;;;;;;;6.99;72.77;100925.00;4962767;28;20109;-45
2021/11/24 07:56:19;;;;;;;11.48;4.65;;;;;;;6.99;73.32;100914.69;4965955;28;20101;-48
2021/11/24 07:58:45;;;;;;;11.32;4.90;;;;;;;6.99;72.96;100914.69;4965903;28;20053;-50
2021/11/24 08:01:13;;;;;;;17.25;6.20;;;;;;;6.98;72.84;100918.06;4964206;28;20097;-46
2021/11/24 08:03:40;;;;;;;8.13;3.55;;;;;;;6.97;73.43;100918.91;4967720;28;20066;-47
2021/11/24 08:06:07;;;;;;;13.75;5.50;;;;;;;6.97;73.42;100912.06;4968372;28;20332;-46
2021/11/24 08:08:34;;;;;;;10.07;3.85;;;;;;;6.97;72.71;100909.50;4968579;28;20103;-47
2021/11/24 08:11:02;;;;;;;12.15;5.18;;;;;;;6.98;72.83;100912.91;4966402;28;20101;-48
2021/11/24 08:13:29;;;;;;;12.63;4.97;;;;;;;6.95;74.00;100906.00;4968572;28;20043;-50
2021/11/24 08:15:56;;;;;;;11.40;4.28;;;;;;;6.95;73.28;100913.72;4970569;28;20050;-50
2021/11/24 08:18:23;;;;;;;11.52;4.80;;;;;;;6.96;72.89;100910.34;4971543;28;20117;-47
2021/11/24 08:20:50;;;;;;;8.60;3.25;;;;;;;6.96;73.58;100906.88;4971239;28;20046;-50
2021/11/24 08:23:17;;;;;;;9.48;4.00;;;;;;;6.94;74.23;100900.00;4968500;28;20553;-46
2021/11/24 08:25:44;;;;;;;8.88;3.85;;;;;;;6.96;73.82;100909.44;4973806;28;20475;-50
2021/11/24 08:28:11;;;;;;;8.57;3.97;;;;;;;6.94;72.55;100902.56;4968459;28;20050;-48
2021/11/24 08:30:38;;;;;;;11.27;5.72;;;;;;;6.93;74.22;100900.78;4967805;28;20483;-49
2021/11/24 08:33:04;;;;;;;11.65;5.30;;;;;;;6.96;74.03;100899.16;4970029;28;20050;-47
2021/11/24 08:35:31;;;;;;;10.43;4.43;;;;;;;6.96;73.59;100886.28;4969519;28;20055;-52
2021/11/24 08:37:58;;;;;;;9.73;4.03;;;;;;;6.94;73.16;100897.41;4970844;28;20042;-48
2021/11/24 08:40:25;;;;;;;8.80;3.28;;;;;;;6.93;73.72;100890.50;4965707;28;20054;-52
2021/11/24 08:42:52;;;;;;;7.55;3.58;;;;;;;6.94;73.45;100891.38;4969786;28;20150;-48
2021/11/24 08:45:19;;;;;;;7.35;3.15;;;;;;;6.92;73.28;100888.75;4966174;28;20073;-48
2021/11/24 08:47:47;;;;;;;6.65;3.13;;;;;;;6.92;74.15;100888.75;4970239;28;20046;-49
2021/11/24 08:50:15;;;;;;;6.80;2.97;;;;;;;6.92;74.05;100878.47;4968841;28;20120;-48
2021/11/24 08:52:42;;;;;;;8.75;3.95;;;;;;;6.91;74.59;100875.84;4969761;28;20391;-51
2021/11/24 08:55:10;;;;;;;8.30;3.10;;;;;;;6.93;73.95;100869.03;4970523;28;20050;-47
2021/11/24 08:57:37;;;;;;;7.07;2.88;;;;;;;6.93;74.06;100877.63;4968169;28;20341;-49
2021/11/24 09:00:08;;;;;;;7.10;3.00;;;;;;;6.92;74.27;100875.88;4970688;28;20043;-47
2021/11/24 09:02:35;;;;;;;7.30;2.80;;;;;;;6.90;73.35;100869.84;4968686;28;20055;-50
2021/11/24 09:05:04;;;;;;;10.02;3.95;;;;;;;6.91;74.51;100876.72;4970022;28;20483;-49
2021/11/24 09:07:31;;;;;;;9.50;3.60;;;;;;;6.89;73.50;100878.38;4968703;28;20046;-48
2021/11/24 09:10:00;;;;;;;11.82;3.45;;;;;;;6.90;74.61;100864.69;4969694;28;20101;-49
2021/11/24 09:12:27;;;;;;;10.55;4.28;;;;;;;6.90;73.38;100867.25;4969417;28;20130;-45
2021/11/24 09:14:54;;;;;;;8.10;3.50;;;;;;;6.89;74.38;100864.66;4967288;28;20061;-47
2021/11/24 09:17:21;;;;;;;11.25;4.05;;;;;;;6.89;74.56;100862.06;4970022;28;20054;-49
2021/11/24 09:19:49;;;;;;;9.88;4.05;;;;;;;6.90;74.49;100858.66;4970474;28;20506;-52
2021/11/24 09:22:34;;;;;;;8.88;2.85;;;;;;;6.89;73.94;100862.06;4968276;28;20054;-49
2021/11/24 09:25:01;;;;;;;13.55;5.32;;;;;;;6.90;73.89;100856.97;4968719;28;20051;-46
2021/11/24 09:27:30;;;;;;;11.07;4.00;;;;;;;6.93;74.39;100858.75;4967637;28;20109;-50
2021/11/24 09:29:58;;;;;;;9.98;4.07;;;;;;;6.96;75.11;100852.78;4971019;28;20042;-46
2021/11/24 09:32:26;;;;;;;6.78;2.47;;;;;;;6.91;74.27;100845.81;4967343;28;20047;-48
2021/11/24 09:34:53;;;;;;;9.57;4.03;;;;;;;6.92;75.13;100842.41;4967386;28;20524;-48
2021/11/24 09:37:19;;;;;;;12.18;5.18;;;;;;;6.92;74.49;100837.25;4969060;28;20055;-48
2021/11/24 09:39:46;;;;;;;12.43;4.30;;;;;;;6.91;75.39;100834.63;4978861;28;20054;-51
2021/11/24 09:42:16;;;;;;;13.55;5.25;;;;;;;6.94;74.29;100824.41;4971373;28;20701;-49
2021/11/24 09:44:47;;;;;;;13.35;5.53;;;;;;;6.97;75.21;100832.22;4965302;28;20054;-49
2021/11/24 09:47:15;;;;;;;12.38;4.75;;;;;;;6.98;75.05;100827.94;4969007;28;20050;-47
2021/11/24 09:49:46;;;;;;;13.40;5.15;;;;;;;7.01;73.85;100825.44;4965907;28;20450;-48
2021/11/24 09:52:18;;;;;;;19.92;8.40;;;;;;;7.03;74.94;100813.47;4966876;28;20042;-49
2021/11/24 09:54:49;;;;;;;17.05;7.75;;;;;;;7.07;75.25;100810.13;4961203;28;20383;-50
2021/11/24 09:57:19;;;;;;;13.00;5.50;;;;;;;7.11;74.43;100805.91;4974011;28;20055;-47
2021/11/24 09:59:46;;;;;;;14.50;5.93;;;;;;;7.14;73.72;100811.16;4978147;28;20572;-49
2021/11/24 10:02:14;;;;;;;16.95;5.68;;;;;;;7.19;75.21;100807.84;4960604;28;20063;-49
2021/11/24 10:04:43;;;;;;;15.23;5.15;;;;;;;7.21;73.89;100805.31;4958603;28;20134;-47
2021/11/24 10:07:11;;;;;;;11.27;4.30;;;;;;;7.18;74.04;100798.38;4964161;28;20125;-49
2021/11/24 10:09:40;;;;;;;11.85;3.88;;;;;;;7.22;74.24;100803.63;4974279;28;20169;-48
2021/11/24 10:12:08;;;;;;;9.13;3.20;;;;;;;7.19;75.00;100800.13;4958107;28;20113;-46
2021/11/24 10:14:36;;;;;;;7.85;3.90;;;;;;;7.16;73.91;100784.56;4958464;28;20050;-52
2021/11/24 10:17:06;;;;;;;14.60;4.78;;;;;;;7.16;75.01;100787.16;4960853;28;20058;-48
2021/11/24 10:19:34;;;;;;;;;;;;;;;7.10;75.32;100784.44;4961988;28;20054;-46
2021/11/24 10:22:06;;;;;;;17.58;5.32;;;;;;;7.16;74.16;100774.28;4961589;28;19930;-46
2021/11/24 10:24:37;;;;;;;13.18;4.72;;;;;;;7.17;73.25;100778.59;4958679;28;20055;-46
2021/11/24 10:27:07;;;;;;;10.52;3.78;;;;;;;7.21;74.77;100774.38;4964082;28;20101;-47
2021/11/24 10:29:37;;;;;;;10.35;3.85;;;;;;;7.19;74.27;100770.88;4963733;28;20046;-47
2021/11/24 10:32:06;;;;;;;9.98;3.92;;;;;;;7.19;73.85;100774.34;4972887;28;20157;-49
2021/11/24 10:34:36;;;;;;;8.85;3.95;;;;;;;7.17;73.38;100760.53;4975095;28;20152;-46
2021/11/24 10:37:07;;;;;;;10.98;3.25;;;;;;;7.18;74.08;100762.31;4959416;28;20054;-51
2021/11/24 10:39:39;;;;;;;8.40;3.28;;;;;;;7.20;74.17;100765.78;4963746;28;20086;-48
2021/11/24 10:42:25;;;;;;;9.18;3.55;;;;;;;7.19;73.40;100766.63;4963442;28;20121;-51
2021/11/24 10:44:56;;;;;;;7.63;3.20;;;;;;;7.18;74.41;100759.72;4964053;28;20058;-47
2021/11/24 10:47:26;;;;;;;5.80;2.75;;;;;;;7.15;73.42;100751.03;4960470;28;20098;-50
2021/11/24 10:49:56;;;;;;;5.65;2.50;;;;;;;7.14;74.36;100760.50;4962372;28;20050;-48
2021/11/24 10:52:29;;;;;;;7.28;2.97;;;;;;;7.16;73.41;100756.22;4960440;28;20529;-47
2021/11/24 10:55:18;;;;;;;10.43;3.60;;;;;;;7.19;74.01;100750.28;4955554;28;20062;-48
2021/11/24 10:57:59;;;;;;;6.43;2.55;;;;;;;7.21;74.59;100740.88;4961334;28;20047;-48
2021/11/24 11:00:48;;;;;;;7.07;2.50;;;;;;;7.15;74.40;100736.47;4951701;28;20055;-47
2021/11/24 11:03:36;;;;;;;6.65;2.58;;;;;;;7.15;74.14;100721.00;4962778;28;20150;-47
2021/11/24 11:06:03;;;;;;;9.18;3.10;;;;;;;7.20;72.99;100719.41;4956603;28;20423;-49
2021/11/24 11:08:30;;;;;;;8.57;3.63;;;;;;;7.19;74.77;100711.63;4961908;28;20043;-49
2021/11/24 11:11:27;;;;;;;9.63;3.65;;;;;;;7.16;73.08;100704.72;4962698;28;20552;-45
2021/11/24 11:14:16;;;;;;;8.40;3.45;;;;;;;7.12;73.98;100710.63;4959778;28;20055;-46
2021/11/24 11:16:49;;;;;;;7.57;3.17;;;;;;;7.13;74.13;100699.47;4959692;28;20058;-50
2021/11/24 11:19:37;;;;;;;8.40;3.40;;;;;;;7.07;74.43;100694.22;4962728;28;20050;-48
2021/11/24 11:22:05;;;;;;;9.77;3.78;;;;;;;7.08;74.55;100695.94;4970669;28;20055;-51
2021/11/24 11:24:32;;;;;;;9.82;3.45;;;;;;;7.06;73.05;100692.47;4962260;28;20058;-52
2021/11/24 11:26:59;;;;;;;10.88;3.17;;;;;;;7.05;73.54;100689.03;4960368;28;20150;-45
2021/11/24 11:29:25;;;;;;;6.43;2.45;;;;;;;7.07;74.34;100687.34;4960512;28;20106;-50
2021/11/24 11:31:53;;;;;;;7.65;2.40;;;;;;;7.07;74.18;100681.34;4968034;28;20047;-46
2021/11/24 11:34:20;;;;;;;8.25;2.60;;;;;;;7.07;73.71;100686.50;4964591;28;20058;-48
2021/11/24 11:36:48;;;;;;;7.80;3.03;;;;;;;7.07;73.81;100683.91;4969193;28;20054;-47